Terminal Aerodrome Forecast
Issued by NWS

Home | Current Version | Previous Version | Graphics & Text | Print | Product List | Glossary On
Versions: 1 2 3 4 5 6 7 8 9 10 11 12 13 14 15 16 17
389
FTUS43 KABR 141722
TAFPIR
TAF
KPIR 141722Z 1418/1518 36012KT 2SM RA OVC015
     FM142300 33016G24KT P6SM VCSH BKN035
     FM150000 33014G23KT P6SM BKN045
     FM150500 30009KT P6SM FEW200=

USA.gov is the U.S. government's official web portal to all federal, state and local government web resources and services.